sensor_id;sensor_type;location;lat;lon;timestamp;temperature;humidity
14182;DHT22;7171;50.936;6.764;2023-06-10T00:00:03;22.40;92.50
14182;DHT22;7171;50.936;6.764;2023-06-10T00:02:32;22.40;93.40
14182;DHT22;7171;50.936;6.764;2023-06-10T00:04:59;22.40;94.10
14182;DHT22;7171;50.936;6.764;2023-06-10T00:07:25;22.40;92.60
14182;DHT22;7171;50.936;6.764;2023-06-10T00:09:52;22.40;92.60
14182;DHT22;7171;50.936;6.764;2023-06-10T00:12:20;22.30;92.60
14182;DHT22;7171;50.936;6.764;2023-06-10T00:14:48;22.30;94.10
14182;DHT22;7171;50.936;6.764;2023-06-10T00:17:17;22.40;95.40
14182;DHT22;7171;50.936;6.764;2023-06-10T00:19:44;22.30;93.10
14182;DHT22;7171;50.936;6.764;2023-06-10T00:22:12;22.20;93.30
14182;DHT22;7171;50.936;6.764;2023-06-10T00:24:39;22.20;94.00
14182;DHT22;7171;50.936;6.764;2023-06-10T00:27:07;22.20;92.90
14182;DHT22;7171;50.936;6.764;2023-06-10T00:29:34;22.10;93.00
14182;DHT22;7171;50.936;6.764;2023-06-10T00:32:02;22.20;93.00
14182;DHT22;7171;50.936;6.764;2023-06-10T00:34:29;22.10;93.00
14182;DHT22;7171;50.936;6.764;2023-06-10T00:36:57;22.10;93.10
14182;DHT22;7171;50.936;6.764;2023-06-10T00:39:24;22.10;93.20
14182;DHT22;7171;50.936;6.764;2023-06-10T00:41:51;22.00;93.20
14182;DHT22;7171;50.936;6.764;2023-06-10T00:44:17;22.00;93.30
14182;DHT22;7171;50.936;6.764;2023-06-10T00:46:44;22.00;93.20
14182;DHT22;7171;50.936;6.764;2023-06-10T00:49:13;22.00;93.30
14182;DHT22;7171;50.936;6.764;2023-06-10T00:51:40;22.00;93.30
14182;DHT22;7171;50.936;6.764;2023-06-10T00:54:07;22.00;93.30
14182;DHT22;7171;50.936;6.764;2023-06-10T00:56:34;21.90;93.30
14182;DHT22;7171;50.936;6.764;2023-06-10T00:59:01;21.90;93.30
14182;DHT22;7171;50.936;6.764;2023-06-10T01:01:29;21.90;93.30
14182;DHT22;7171;50.936;6.764;2023-06-10T01:03:55;21.90;93.40
14182;DHT22;7171;50.936;6.764;2023-06-10T01:06:30;21.90;93.40
14182;DHT22;7171;50.936;6.764;2023-06-10T01:09:06;21.90;93.40
14182;DHT22;7171;50.936;6.764;2023-06-10T01:11:42;21.90;93.50
14182;DHT22;7171;50.936;6.764;2023-06-10T01:14:10;21.90;93.50
14182;DHT22;7171;50.936;6.764;2023-06-10T01:16:37;21.90;93.50
14182;DHT22;7171;50.936;6.764;2023-06-10T01:19:06;21.80;93.50
14182;DHT22;7171;50.936;6.764;2023-06-10T01:21:34;21.80;93.50
14182;DHT22;7171;50.936;6.764;2023-06-10T01:24:01;21.80;93.50
14182;DHT22;7171;50.936;6.764;2023-06-10T01:26:30;21.80;93.60
14182;DHT22;7171;50.936;6.764;2023-06-10T01:29:02;21.70;93.60
14182;DHT22;7171;50.936;6.764;2023-06-10T01:31:34;21.80;93.60
14182;DHT22;7171;50.936;6.764;2023-06-10T01:34:06;21.80;93.60
14182;DHT22;7171;50.936;6.764;2023-06-10T01:36:36;21.80;93.70
14182;DHT22;7171;50.936;6.764;2023-06-10T01:39:04;21.80;93.70
14182;DHT22;7171;50.936;6.764;2023-06-10T01:41:32;21.70;93.70
14182;DHT22;7171;50.936;6.764;2023-06-10T01:44:00;21.70;93.70
14182;DHT22;7171;50.936;6.764;2023-06-10T01:46:26;21.70;93.70
14182;DHT22;7171;50.936;6.764;2023-06-10T01:48:53;21.70;93.70
14182;DHT22;7171;50.936;6.764;2023-06-10T01:51:20;21.70;93.70
14182;DHT22;7171;50.936;6.764;2023-06-10T01:53:48;21.70;93.70
14182;DHT22;7171;50.936;6.764;2023-06-10T01:56:15;21.70;93.70
14182;DHT22;7171;50.936;6.764;2023-06-10T01:58:42;21.70;93.70
14182;DHT22;7171;50.936;6.764;2023-06-10T02:01:09;21.60;93.70
14182;DHT22;7171;50.936;6.764;2023-06-10T02:03:36;21.60;93.70
14182;DHT22;7171;50.936;6.764;2023-06-10T02:06:03;21.70;93.80
14182;DHT22;7171;50.936;6.764;2023-06-10T02:08:29;21.60;93.80
14182;DHT22;7171;50.936;6.764;2023-06-10T02:10:58;21.60;93.80
14182;DHT22;7171;50.936;6.764;2023-06-10T02:13:24;21.60;93.80
14182;DHT22;7171;50.936;6.764;2023-06-10T02:15:51;21.60;93.90
14182;DHT22;7171;50.936;6.764;2023-06-10T02:18:19;21.50;93.80
14182;DHT22;7171;50.936;6.764;2023-06-10T02:20:47;21.50;93.80
14182;DHT22;7171;50.936;6.764;2023-06-10T02:23:14;21.40;95.40
14182;DHT22;7171;50.936;6.764;2023-06-10T02:25:40;21.40;93.90
14182;DHT22;7171;50.936;6.764;2023-06-10T02:28:09;21.40;94.00
14182;DHT22;7171;50.936;6.764;2023-06-10T02:30:39;20.50;93.70
14182;DHT22;7171;50.936;6.764;2023-06-10T02:33:06;21.30;94.00
14182;DHT22;7171;50.936;6.764;2023-06-10T02:35:35;21.00;95.00
14182;DHT22;7171;50.936;6.764;2023-06-10T02:38:02;21.20;94.10
14182;DHT22;7171;50.936;6.764;2023-06-10T02:40:29;21.10;94.10
14182;DHT22;7171;50.936;6.764;2023-06-10T02:42:57;21.00;94.40
14182;DHT22;7171;50.936;6.764;2023-06-10T02:45:25;20.90;94.30
14182;DHT22;7171;50.936;6.764;2023-06-10T02:47:52;20.90;94.10
14182;DHT22;7171;50.936;6.764;2023-06-10T02:50:19;20.90;94.60
14182;DHT22;7171;50.936;6.764;2023-06-10T02:52:45;20.80;94.10
14182;DHT22;7171;50.936;6.764;2023-06-10T02:55:12;20.70;94.20
14182;DHT22;7171;50.936;6.764;2023-06-10T02:57:39;20.60;94.30
14182;DHT22;7171;50.936;6.764;2023-06-10T03:00:07;20.60;94.30
14182;DHT22;7171;50.936;6.764;2023-06-10T03:02:37;20.50;94.30
14182;DHT22;7171;50.936;6.764;2023-06-10T03:05:04;20.50;94.40
14182;DHT22;7171;50.936;6.764;2023-06-10T03:07:34;20.40;94.50
14182;DHT22;7171;50.936;6.764;2023-06-10T03:10:01;20.40;94.60
14182;DHT22;7171;50.936;6.764;2023-06-10T03:12:27;20.40;94.60
14182;DHT22;7171;50.936;6.764;2023-06-10T03:14:54;20.40;94.70
14182;DHT22;7171;50.936;6.764;2023-06-10T03:17:21;20.30;94.70
14182;DHT22;7171;50.936;6.764;2023-06-10T03:19:49;20.30;94.80
14182;DHT22;7171;50.936;6.764;2023-06-10T03:22:16;20.30;94.80
14182;DHT22;7171;50.936;6.764;2023-06-10T03:24:43;20.30;94.90
14182;DHT22;7171;50.936;6.764;2023-06-10T03:27:12;20.30;94.90
14182;DHT22;7171;50.936;6.764;2023-06-10T03:29:39;20.30;95.00
14182;DHT22;7171;50.936;6.764;2023-06-10T03:32:06;20.30;95.00
14182;DHT22;7171;50.936;6.764;2023-06-10T03:34:33;20.20;95.00
14182;DHT22;7171;50.936;6.764;2023-06-10T03:37:01;20.20;95.10
14182;DHT22;7171;50.936;6.764;2023-06-10T03:39:28;20.30;95.10
14182;DHT22;7171;50.936;6.764;2023-06-10T03:41:55;20.20;95.20
14182;DHT22;7171;50.936;6.764;2023-06-10T03:44:22;20.20;95.10
14182;DHT22;7171;50.936;6.764;2023-06-10T03:46:49;20.10;95.20
14182;DHT22;7171;50.936;6.764;2023-06-10T03:49:15;20.10;95.20
14182;DHT22;7171;50.936;6.764;2023-06-10T03:51:43;20.10;95.30
14182;DHT22;7171;50.936;6.764;2023-06-10T03:54:11;20.10;95.40
14182;DHT22;7171;50.936;6.764;2023-06-10T03:56:39;20.10;95.40
14182;DHT22;7171;50.936;6.764;2023-06-10T03:59:06;20.10;95.40
14182;DHT22;7171;50.936;6.764;2023-06-10T04:01:32;20.00;95.50
14182;DHT22;7171;50.936;6.764;2023-06-10T04:04:00;20.00;95.60
14182;DHT22;7171;50.936;6.764;2023-06-10T04:06:28;20.00;95.70
14182;DHT22;7171;50.936;6.764;2023-06-10T04:08:55;20.00;95.80
14182;DHT22;7171;50.936;6.764;2023-06-10T04:11:23;20.00;95.90
14182;DHT22;7171;50.936;6.764;2023-06-10T04:13:51;20.00;96.00
14182;DHT22;7171;50.936;6.764;2023-06-10T04:16:17;20.00;96.10
14182;DHT22;7171;50.936;6.764;2023-06-10T04:18:44;20.00;96.10
14182;DHT22;7171;50.936;6.764;2023-06-10T04:21:11;20.10;96.20
14182;DHT22;7171;50.936;6.764;2023-06-10T04:23:37;20.10;96.30
14182;DHT22;7171;50.936;6.764;2023-06-10T04:26:04;20.20;96.40
14182;DHT22;7171;50.936;6.764;2023-06-10T04:28:33;20.20;96.40
14182;DHT22;7171;50.936;6.764;2023-06-10T04:31:01;20.20;96.40
14182;DHT22;7171;50.936;6.764;2023-06-10T04:33:29;20.30;96.40
14182;DHT22;7171;50.936;6.764;2023-06-10T04:35:56;20.30;96.40
14182;DHT22;7171;50.936;6.764;2023-06-10T04:38:23;20.40;96.40
14182;DHT22;7171;50.936;6.764;2023-06-10T04:40:49;20.40;96.40
14182;DHT22;7171;50.936;6.764;2023-06-10T04:43:16;20.50;96.40
14182;DHT22;7171;50.936;6.764;2023-06-10T04:45:45;20.50;96.40
14182;DHT22;7171;50.936;6.764;2023-06-10T04:48:12;20.60;96.40
14182;DHT22;7171;50.936;6.764;2023-06-10T04:50:39;20.60;96.30
14182;DHT22;7171;50.936;6.764;2023-06-10T04:53:06;20.70;96.40
14182;DHT22;7171;50.936;6.764;2023-06-10T04:55:32;20.80;96.40
14182;DHT22;7171;50.936;6.764;2023-06-10T04:58:00;20.80;96.40
14182;DHT22;7171;50.936;6.764;2023-06-10T05:00:26;20.90;96.50
14182;DHT22;7171;50.936;6.764;2023-06-10T05:02:54;20.90;96.50
14182;DHT22;7171;50.936;6.764;2023-06-10T05:05:21;21.00;96.60
14182;DHT22;7171;50.936;6.764;2023-06-10T05:07:48;21.00;96.70
14182;DHT22;7171;50.936;6.764;2023-06-10T05:10:15;21.10;97.10
14182;DHT22;7171;50.936;6.764;2023-06-10T05:12:42;21.10;96.90
14182;DHT22;7171;50.936;6.764;2023-06-10T05:15:09;21.10;97.00
14182;DHT22;7171;50.936;6.764;2023-06-10T05:17:37;21.20;97.10
14182;DHT22;7171;50.936;6.764;2023-06-10T05:20:06;21.20;97.20
14182;DHT22;7171;50.936;6.764;2023-06-10T05:22:33;21.30;97.30
14182;DHT22;7171;50.936;6.764;2023-06-10T05:25:01;21.30;97.30
14182;DHT22;7171;50.936;6.764;2023-06-10T05:27:28;21.30;97.50
14182;DHT22;7171;50.936;6.764;2023-06-10T05:29:55;21.30;97.50
14182;DHT22;7171;50.936;6.764;2023-06-10T05:34:51;21.50;97.40
14182;DHT22;7171;50.936;6.764;2023-06-10T05:37:19;21.50;97.50
14182;DHT22;7171;50.936;6.764;2023-06-10T05:39:46;21.50;97.50
14182;DHT22;7171;50.936;6.764;2023-06-10T05:42:12;21.60;97.40
14182;DHT22;7171;50.936;6.764;2023-06-10T05:44:39;21.70;97.40
14182;DHT22;7171;50.936;6.764;2023-06-10T05:47:06;21.70;97.50
14182;DHT22;7171;50.936;6.764;2023-06-10T05:49:33;21.70;97.50
14182;DHT22;7171;50.936;6.764;2023-06-10T05:52:00;21.80;97.60
14182;DHT22;7171;50.936;6.764;2023-06-10T05:54:28;21.80;97.70
14182;DHT22;7171;50.936;6.764;2023-06-10T05:56:54;21.90;97.60
14182;DHT22;7171;50.936;6.764;2023-06-10T05:59:21;21.90;99.90
14182;DHT22;7171;50.936;6.764;2023-06-10T06:01:48;22.00;97.50
14182;DHT22;7171;50.936;6.764;2023-06-10T06:04:15;22.00;97.50
14182;DHT22;7171;50.936;6.764;2023-06-10T06:06:42;22.10;97.50
14182;DHT22;7171;50.936;6.764;2023-06-10T06:09:09;22.10;97.40
14182;DHT22;7171;50.936;6.764;2023-06-10T06:11:37;22.20;97.40
14182;DHT22;7171;50.936;6.764;2023-06-10T06:14:04;22.20;97.60
14182;DHT22;7171;50.936;6.764;2023-06-10T06:16:31;22.30;97.40
14182;DHT22;7171;50.936;6.764;2023-06-10T06:21:26;22.40;97.10
14182;DHT22;7171;50.936;6.764;2023-06-10T06:23:53;22.50;97.40
14182;DHT22;7171;50.936;6.764;2023-06-10T06:26:20;22.50;97.40
14182;DHT22;7171;50.936;6.764;2023-06-10T06:28:48;22.60;97.60
14182;DHT22;7171;50.936;6.764;2023-06-10T06:31:14;22.70;97.40
14182;DHT22;7171;50.936;6.764;2023-06-10T06:33:41;22.80;97.60
14182;DHT22;7171;50.936;6.764;2023-06-10T06:36:08;22.80;97.20
14182;DHT22;7171;50.936;6.764;2023-06-10T06:38:35;22.80;97.00
14182;DHT22;7171;50.936;6.764;2023-06-10T06:41:01;23.10;98.10
14182;DHT22;7171;50.936;6.764;2023-06-10T06:43:31;23.10;99.90
14182;DHT22;7171;50.936;6.764;2023-06-10T06:48:26;23.10;96.10
14182;DHT22;7171;50.936;6.764;2023-06-10T06:50:53;23.20;96.40
14182;DHT22;7171;50.936;6.764;2023-06-10T06:53:21;23.20;96.30
14182;DHT22;7171;50.936;6.764;2023-06-10T06:55:48;23.30;97.00
14182;DHT22;7171;50.936;6.764;2023-06-10T06:58:15;23.30;95.90
14182;DHT22;7171;50.936;6.764;2023-06-10T07:00:41;23.40;96.10
14182;DHT22;7171;50.936;6.764;2023-06-10T07:03:09;23.50;97.40
14182;DHT22;7171;50.936;6.764;2023-06-10T07:05:37;23.60;97.00
14182;DHT22;7171;50.936;6.764;2023-06-10T07:08:04;23.80;98.10
14182;DHT22;7171;50.936;6.764;2023-06-10T07:10:31;23.70;97.90
14182;DHT22;7171;50.936;6.764;2023-06-10T07:12:58;24.00;98.00
14182;DHT22;7171;50.936;6.764;2023-06-10T07:20:22;23.90;95.40
14182;DHT22;7171;50.936;6.764;2023-06-10T07:22:49;24.00;95.50
14182;DHT22;7171;50.936;6.764;2023-06-10T07:25:15;24.00;95.30
14182;DHT22;7171;50.936;6.764;2023-06-10T07:27:42;24.10;95.30
14182;DHT22;7171;50.936;6.764;2023-06-10T07:30:09;24.20;95.40
14182;DHT22;7171;50.936;6.764;2023-06-10T07:32:36;24.20;98.60
14182;DHT22;7171;50.936;6.764;2023-06-10T07:35:06;24.30;95.40
14182;DHT22;7171;50.936;6.764;2023-06-10T07:37:34;24.30;95.30
14182;DHT22;7171;50.936;6.764;2023-06-10T07:40:01;24.40;95.30
14182;DHT22;7171;50.936;6.764;2023-06-10T07:42:28;24.40;96.60
14182;DHT22;7171;50.936;6.764;2023-06-10T07:44:55;24.60;97.30
14182;DHT22;7171;50.936;6.764;2023-06-10T07:47:22;24.50;95.00
14182;DHT22;7171;50.936;6.764;2023-06-10T07:49:48;24.70;98.30
14182;DHT22;7171;50.936;6.764;2023-06-10T07:52:15;24.80;98.90
14182;DHT22;7171;50.936;6.764;2023-06-10T07:54:43;24.80;99.50
14182;DHT22;7171;50.936;6.764;2023-06-10T07:57:10;24.70;95.00
14182;DHT22;7171;50.936;6.764;2023-06-10T07:59:37;24.80;94.70
14182;DHT22;7171;50.936;6.764;2023-06-10T08:02:04;24.80;94.70
14182;DHT22;7171;50.936;6.764;2023-06-10T08:04:31;24.90;94.50
14182;DHT22;7171;50.936;6.764;2023-06-10T08:07:00;24.90;94.90
14182;DHT22;7171;50.936;6.764;2023-06-10T08:09:27;25.20;99.90
14182;DHT22;7171;50.936;6.764;2023-06-10T08:11:55;25.10;98.10
14182;DHT22;7171;50.936;6.764;2023-06-10T08:16:49;25.10;99.90
14182;DHT22;7171;50.936;6.764;2023-06-10T08:19:16;25.20;94.50
14182;DHT22;7171;50.936;6.764;2023-06-10T08:21:43;25.20;94.60
14182;DHT22;7171;50.936;6.764;2023-06-10T08:24:09;25.20;94.50
14182;DHT22;7171;50.936;6.764;2023-06-10T08:26:36;25.40;94.70
14182;DHT22;7171;50.936;6.764;2023-06-10T08:29:05;25.30;94.50
14182;DHT22;7171;50.936;6.764;2023-06-10T08:31:32;25.60;94.60
14182;DHT22;7171;50.936;6.764;2023-06-10T08:36:26;25.50;94.10
14182;DHT22;7171;50.936;6.764;2023-06-10T08:38:53;25.50;94.30
14182;DHT22;7171;50.936;6.764;2023-06-10T08:41:21;25.60;94.30
14182;DHT22;7171;50.936;6.764;2023-06-10T08:43:57;25.60;94.30
14182;DHT22;7171;50.936;6.764;2023-06-10T08:46:27;25.60;96.10
14182;DHT22;7171;50.936;6.764;2023-06-10T08:48:54;25.80;94.30
14182;DHT22;7171;50.936;6.764;2023-06-10T08:51:23;25.80;94.90
14182;DHT22;7171;50.936;6.764;2023-06-10T08:53:54;25.80;94.40
14182;DHT22;7171;50.936;6.764;2023-06-10T08:56:25;25.80;94.20
14182;DHT22;7171;50.936;6.764;2023-06-10T08:58:53;25.90;94.20
14182;DHT22;7171;50.936;6.764;2023-06-10T09:06:16;26.20;94.10
14182;DHT22;7171;50.936;6.764;2023-06-10T09:08:44;26.20;94.70
14182;DHT22;7171;50.936;6.764;2023-06-10T09:11:11;26.30;95.50
14182;DHT22;7171;50.936;6.764;2023-06-10T09:13:38;26.40;98.80
14182;DHT22;7171;50.936;6.764;2023-06-10T09:16:05;26.50;99.90
14182;DHT22;7171;50.936;6.764;2023-06-10T09:18:32;26.50;97.70
14182;DHT22;7171;50.936;6.764;2023-06-10T09:21:01;26.50;94.40
14182;DHT22;7171;50.936;6.764;2023-06-10T09:23:28;26.70;98.20
14182;DHT22;7171;50.936;6.764;2023-06-10T09:28:25;26.60;99.90
14182;DHT22;7171;50.936;6.764;2023-06-10T09:31:02;26.90;99.90
14182;DHT22;7171;50.936;6.764;2023-06-10T09:35:56;27.00;93.90
14182;DHT22;7171;50.936;6.764;2023-06-10T09:38:31;27.10;94.20
14182;DHT22;7171;50.936;6.764;2023-06-10T09:40:58;27.20;94.00
14182;DHT22;7171;50.936;6.764;2023-06-10T09:43:39;27.20;93.80
14182;DHT22;7171;50.936;6.764;2023-06-10T09:46:07;27.30;93.80
14182;DHT22;7171;50.936;6.764;2023-06-10T09:48:35;27.40;93.80
14182;DHT22;7171;50.936;6.764;2023-06-10T09:51:08;27.40;93.70
14182;DHT22;7171;50.936;6.764;2023-06-10T09:53:37;27.50;93.60
14182;DHT22;7171;50.936;6.764;2023-06-10T09:56:04;27.60;93.60
14182;DHT22;7171;50.936;6.764;2023-06-10T09:58:35;27.50;93.30
14182;DHT22;7171;50.936;6.764;2023-06-10T10:01:05;27.60;93.50
14182;DHT22;7171;50.936;6.764;2023-06-10T10:03:32;27.60;93.30
14182;DHT22;7171;50.936;6.764;2023-06-10T10:05:59;27.70;93.00
14182;DHT22;7171;50.936;6.764;2023-06-10T10:08:26;27.60;93.30
14182;DHT22;7171;50.936;6.764;2023-06-10T10:10:56;27.70;93.20
14182;DHT22;7171;50.936;6.764;2023-06-10T10:13:24;27.70;93.30
14182;DHT22;7171;50.936;6.764;2023-06-10T10:15:52;27.80;93.60
14182;DHT22;7171;50.936;6.764;2023-06-10T10:18:19;28.00;94.10
14182;DHT22;7171;50.936;6.764;2023-06-10T10:20:50;28.00;93.80
14182;DHT22;7171;50.936;6.764;2023-06-10T10:23:23;28.10;93.80
14182;DHT22;7171;50.936;6.764;2023-06-10T10:25:53;28.20;93.80
14182;DHT22;7171;50.936;6.764;2023-06-10T10:28:23;28.40;93.80
14182;DHT22;7171;50.936;6.764;2023-06-10T10:30:54;28.50;93.60
14182;DHT22;7171;50.936;6.764;2023-06-10T10:33:28;28.60;93.60
14182;DHT22;7171;50.936;6.764;2023-06-10T10:35:58;28.70;93.60
14182;DHT22;7171;50.936;6.764;2023-06-10T10:38:25;28.80;93.40
14182;DHT22;7171;50.936;6.764;2023-06-10T10:40:54;28.70;93.10
14182;DHT22;7171;50.936;6.764;2023-06-10T10:43:25;28.90;93.40
14182;DHT22;7171;50.936;6.764;2023-06-10T10:45:58;29.00;93.30
14182;DHT22;7171;50.936;6.764;2023-06-10T10:48:25;29.10;93.30
14182;DHT22;7171;50.936;6.764;2023-06-10T10:50:56;29.10;93.20
14182;DHT22;7171;50.936;6.764;2023-06-10T10:53:24;29.20;93.30
14182;DHT22;7171;50.936;6.764;2023-06-10T10:55:59;29.30;93.30
14182;DHT22;7171;50.936;6.764;2023-06-10T10:58:26;29.40;93.30
14182;DHT22;7171;50.936;6.764;2023-06-10T11:00:52;29.50;93.20
14182;DHT22;7171;50.936;6.764;2023-06-10T11:03:19;29.50;92.90
14182;DHT22;7171;50.936;6.764;2023-06-10T11:05:47;29.60;92.80
14182;DHT22;7171;50.936;6.764;2023-06-10T11:08:15;29.70;92.70
14182;DHT22;7171;50.936;6.764;2023-06-10T11:10:51;29.70;92.40
14182;DHT22;7171;50.936;6.764;2023-06-10T11:13:21;29.70;92.40
14182;DHT22;7171;50.936;6.764;2023-06-10T11:15:49;29.80;92.30
14182;DHT22;7171;50.936;6.764;2023-06-10T11:18:20;29.80;92.30
14182;DHT22;7171;50.936;6.764;2023-06-10T11:20:53;29.80;92.40
14182;DHT22;7171;50.936;6.764;2023-06-10T11:23:48;29.80;92.40
14182;DHT22;7171;50.936;6.764;2023-06-10T11:26:21;30.10;92.40
14182;DHT22;7171;50.936;6.764;2023-06-10T11:29:08;29.90;92.00
14182;DHT22;7171;50.936;6.764;2023-06-10T11:31:43;30.00;91.40
14182;DHT22;7171;50.936;6.764;2023-06-10T11:34:12;30.00;93.00
14182;DHT22;7171;50.936;6.764;2023-06-10T11:36:39;30.10;91.50
14182;DHT22;7171;50.936;6.764;2023-06-10T11:39:08;30.30;91.50
14182;DHT22;7171;50.936;6.764;2023-06-10T11:41:36;30.30;91.30
14182;DHT22;7171;50.936;6.764;2023-06-10T11:44:07;30.40;91.50
14182;DHT22;7171;50.936;6.764;2023-06-10T11:46:35;30.50;91.70
14182;DHT22;7171;50.936;6.764;2023-06-10T11:49:03;30.70;91.30
14182;DHT22;7171;50.936;6.764;2023-06-10T11:51:33;30.80;91.10
14182;DHT22;7171;50.936;6.764;2023-06-10T11:54:01;30.80;91.00
14182;DHT22;7171;50.936;6.764;2023-06-10T11:56:29;30.90;91.10
14182;DHT22;7171;50.936;6.764;2023-06-10T11:58:58;30.90;90.90
14182;DHT22;7171;50.936;6.764;2023-06-10T12:01:29;30.80;91.10
14182;DHT22;7171;50.936;6.764;2023-06-10T12:03:59;30.70;90.90
14182;DHT22;7171;50.936;6.764;2023-06-10T12:06:27;30.60;90.70
14182;DHT22;7171;50.936;6.764;2023-06-10T12:08:54;30.40;90.70
14182;DHT22;7171;50.936;6.764;2023-06-10T12:11:21;30.30;90.70
14182;DHT22;7171;50.936;6.764;2023-06-10T12:13:49;30.20;91.00
14182;DHT22;7171;50.936;6.764;2023-06-10T12:16:17;30.10;90.50
14182;DHT22;7171;50.936;6.764;2023-06-10T12:18:46;30.10;90.70
14182;DHT22;7171;50.936;6.764;2023-06-10T12:21:18;30.00;90.80
14182;DHT22;7171;50.936;6.764;2023-06-10T12:24:06;29.90;90.80
14182;DHT22;7171;50.936;6.764;2023-06-10T12:26:41;29.90;90.90
14182;DHT22;7171;50.936;6.764;2023-06-10T12:29:21;29.80;90.10
14182;DHT22;7171;50.936;6.764;2023-06-10T12:32:00;30.00;90.10
14182;DHT22;7171;50.936;6.764;2023-06-10T12:34:30;29.90;89.80
14182;DHT22;7171;50.936;6.764;2023-06-10T12:36:58;30.00;88.70
14182;DHT22;7171;50.936;6.764;2023-06-10T12:39:25;30.00;87.20
14182;DHT22;7171;50.936;6.764;2023-06-10T12:41:52;30.00;88.60
14182;DHT22;7171;50.936;6.764;2023-06-10T12:44:28;30.00;88.20
14182;DHT22;7171;50.936;6.764;2023-06-10T12:46:55;30.00;87.50
14182;DHT22;7171;50.936;6.764;2023-06-10T12:49:22;29.90;86.50
14182;DHT22;7171;50.936;6.764;2023-06-10T12:51:49;29.90;86.70
14182;DHT22;7171;50.936;6.764;2023-06-10T12:54:17;29.80;86.50
14182;DHT22;7171;50.936;6.764;2023-06-10T12:56:44;29.80;87.40
14182;DHT22;7171;50.936;6.764;2023-06-10T12:59:10;29.80;87.00
14182;DHT22;7171;50.936;6.764;2023-06-10T13:01:37;29.80;85.40
14182;DHT22;7171;50.936;6.764;2023-06-10T13:04:05;29.90;85.40
14182;DHT22;7171;50.936;6.764;2023-06-10T13:06:32;29.90;85.40
14182;DHT22;7171;50.936;6.764;2023-06-10T13:09:02;29.90;85.90
14182;DHT22;7171;50.936;6.764;2023-06-10T13:11:30;29.90;86.00
14182;DHT22;7171;50.936;6.764;2023-06-10T13:13:57;30.00;86.50
14182;DHT22;7171;50.936;6.764;2023-06-10T13:16:25;30.00;84.90
14182;DHT22;7171;50.936;6.764;2023-06-10T13:18:53;30.10;83.80
14182;DHT22;7171;50.936;6.764;2023-06-10T13:21:20;30.20;85.00
14182;DHT22;7171;50.936;6.764;2023-06-10T13:23:47;30.30;84.50
14182;DHT22;7171;50.936;6.764;2023-06-10T13:26:14;30.40;84.90
14182;DHT22;7171;50.936;6.764;2023-06-10T13:28:43;30.50;84.10
14182;DHT22;7171;50.936;6.764;2023-06-10T13:31:10;30.60;85.20
14182;DHT22;7171;50.936;6.764;2023-06-10T13:33:37;30.70;84.50
14182;DHT22;7171;50.936;6.764;2023-06-10T13:36:04;31.00;84.50
14182;DHT22;7171;50.936;6.764;2023-06-10T13:38:31;31.00;83.50
14182;DHT22;7171;50.936;6.764;2023-06-10T13:40:57;31.20;82.80
14182;DHT22;7171;50.936;6.764;2023-06-10T13:43:24;31.30;82.90
14182;DHT22;7171;50.936;6.764;2023-06-10T13:48:19;31.60;83.10
14182;DHT22;7171;50.936;6.764;2023-06-10T13:50:46;31.60;82.30
14182;DHT22;7171;50.936;6.764;2023-06-10T13:53:13;31.80;82.30
14182;DHT22;7171;50.936;6.764;2023-06-10T13:55:40;31.90;82.60
14182;DHT22;7171;50.936;6.764;2023-06-10T13:58:07;32.00;82.70
14182;DHT22;7171;50.936;6.764;2023-06-10T14:00:33;32.10;78.90
14182;DHT22;7171;50.936;6.764;2023-06-10T14:03:02;32.10;80.40
14182;DHT22;7171;50.936;6.764;2023-06-10T14:05:29;32.20;80.30
14182;DHT22;7171;50.936;6.764;2023-06-10T14:07:56;32.20;79.20
14182;DHT22;7171;50.936;6.764;2023-06-10T14:10:23;32.20;79.80
14182;DHT22;7171;50.936;6.764;2023-06-10T14:12:49;32.20;77.20
14182;DHT22;7171;50.936;6.764;2023-06-10T14:15:17;32.20;77.70
14182;DHT22;7171;50.936;6.764;2023-06-10T14:17:44;32.20;78.50
14182;DHT22;7171;50.936;6.764;2023-06-10T14:20:12;32.30;78.70
14182;DHT22;7171;50.936;6.764;2023-06-10T14:27:34;32.60;78.20
14182;DHT22;7171;50.936;6.764;2023-06-10T14:30:00;32.70;78.70
14182;DHT22;7171;50.936;6.764;2023-06-10T14:32:28;32.80;76.90
14182;DHT22;7171;50.936;6.764;2023-06-10T14:34:55;32.80;76.70
14182;DHT22;7171;50.936;6.764;2023-06-10T14:37:23;32.80;77.00
14182;DHT22;7171;50.936;6.764;2023-06-10T14:39:49;32.80;77.50
14182;DHT22;7171;50.936;6.764;2023-06-10T14:42:16;32.80;75.30
14182;DHT22;7171;50.936;6.764;2023-06-10T14:44:43;32.70;75.00
14182;DHT22;7171;50.936;6.764;2023-06-10T14:47:10;32.70;75.20
14182;DHT22;7171;50.936;6.764;2023-06-10T14:49:36;32.60;75.50
14182;DHT22;7171;50.936;6.764;2023-06-10T14:52:04;32.60;75.20
14182;DHT22;7171;50.936;6.764;2023-06-10T14:54:32;32.60;75.40
14182;DHT22;7171;50.936;6.764;2023-06-10T14:56:59;32.70;76.00
14182;DHT22;7171;50.936;6.764;2023-06-10T14:59:25;32.70;76.10
14182;DHT22;7171;50.936;6.764;2023-06-10T15:01:52;32.70;74.70
14182;DHT22;7171;50.936;6.764;2023-06-10T15:04:20;32.80;75.80
14182;DHT22;7171;50.936;6.764;2023-06-10T15:06:47;32.80;73.70
14182;DHT22;7171;50.936;6.764;2023-06-10T15:09:14;32.80;74.50
14182;DHT22;7171;50.936;6.764;2023-06-10T15:11:42;32.90;74.20
14182;DHT22;7171;50.936;6.764;2023-06-10T15:14:09;32.90;74.10
14182;DHT22;7171;50.936;6.764;2023-06-10T15:16:36;32.90;74.40
14182;DHT22;7171;50.936;6.764;2023-06-10T15:19:02;32.90;74.20
14182;DHT22;7171;50.936;6.764;2023-06-10T15:21:32;32.90;74.50
14182;DHT22;7171;50.936;6.764;2023-06-10T15:23:58;32.90;75.20
14182;DHT22;7171;50.936;6.764;2023-06-10T15:26:25;32.90;75.40
14182;DHT22;7171;50.936;6.764;2023-06-10T15:28:53;32.90;74.50
14182;DHT22;7171;50.936;6.764;2023-06-10T15:31:20;32.90;73.80
14182;DHT22;7171;50.936;6.764;2023-06-10T15:33:47;32.90;74.70
14182;DHT22;7171;50.936;6.764;2023-06-10T15:36:14;32.90;74.90
14182;DHT22;7171;50.936;6.764;2023-06-10T15:38:41;33.00;76.20
14182;DHT22;7171;50.936;6.764;2023-06-10T15:41:07;33.00;75.30
14182;DHT22;7171;50.936;6.764;2023-06-10T15:43:34;33.10;75.00
14182;DHT22;7171;50.936;6.764;2023-06-10T15:46:02;33.10;74.70
14182;DHT22;7171;50.936;6.764;2023-06-10T15:48:29;33.10;74.30
14182;DHT22;7171;50.936;6.764;2023-06-10T15:50:56;33.00;73.40
14182;DHT22;7171;50.936;6.764;2023-06-10T15:53:22;32.90;72.50
14182;DHT22;7171;50.936;6.764;2023-06-10T15:55:49;32.90;72.00
14182;DHT22;7171;50.936;6.764;2023-06-10T15:58:16;32.80;71.90
14182;DHT22;7171;50.936;6.764;2023-06-10T16:00:43;32.70;71.20
14182;DHT22;7171;50.936;6.764;2023-06-10T16:03:11;32.60;71.00
14182;DHT22;7171;50.936;6.764;2023-06-10T16:05:37;32.60;69.90
14182;DHT22;7171;50.936;6.764;2023-06-10T16:08:04;32.50;70.20
14182;DHT22;7171;50.936;6.764;2023-06-10T16:10:31;32.40;69.80
14182;DHT22;7171;50.936;6.764;2023-06-10T16:12:58;32.20;69.60
14182;DHT22;7171;50.936;6.764;2023-06-10T16:15:25;32.20;70.20
14182;DHT22;7171;50.936;6.764;2023-06-10T16:17:51;32.00;69.30
14182;DHT22;7171;50.936;6.764;2023-06-10T16:22:46;31.80;68.60
14182;DHT22;7171;50.936;6.764;2023-06-10T16:25:13;31.70;69.50